Time;durP1;ratioP1;P1;durP2;ratioP2;P2;SDS_P1;SDS_P2;PMS_P1;PMS_P2;Temp;Humidity;BMP_temperature;BMP_pressure;BME280_temperature;BME280_humidity;BME280_pressure;Samples;Min_cycle;Max_cycle;Signal;HPM_P1;HPM_P2
2022/04/25 00:00:59;;;;;;;1.73;1.52;;;10.90;99.90;;;;;;5073688;28;20530;-65
2022/04/25 00:03:24;;;;;;;2.13;1.92;;;10.90;99.90;;;;;;5071660;28;20059;-65
2022/04/25 00:05:50;;;;;;;2.40;1.35;;;10.90;99.90;;;;;;5074509;28;20047;-65
2022/04/25 00:08:16;;;;;;;1.65;1.55;;;10.70;99.90;;;;;;5074481;28;20036;-66
2022/04/25 00:10:42;;;;;;;2.00;1.67;;;10.70;99.90;;;;;;5075195;28;20037;-65
2022/04/25 00:13:07;;;;;;;3.63;1.75;;;10.60;99.90;;;;;;5075149;28;20037;-65
2022/04/25 00:15:33;;;;;;;3.75;2.30;;;10.60;99.90;;;;;;5075174;28;20443;-65
2022/04/25 00:17:59;;;;;;;3.30;1.98;;;10.60;99.90;;;;;;5075207;28;20071;-65
2022/04/25 00:20:25;;;;;;;4.10;2.05;;;10.60;99.90;;;;;;5074990;28;20036;-65
2022/04/25 00:22:50;;;;;;;2.15;1.70;;;10.60;99.90;;;;;;5074895;28;20098;-65
2022/04/25 00:25:16;;;;;;;2.25;1.75;;;10.60;99.90;;;;;;5074858;28;20058;-65
2022/04/25 00:27:42;;;;;;;2.22;1.42;;;10.60;99.90;;;;;;5074783;28;20043;-65
2022/04/25 00:30:08;;;;;;;3.58;1.42;;;10.70;99.90;;;;;;5074691;28;20064;-65
2022/04/25 00:32:34;;;;;;;8.50;5.47;;;10.60;99.90;;;;;;5074435;28;20048;-65
2022/04/25 00:35:03;;;;;;;6.38;4.40;;;10.50;99.90;;;;;;5074509;28;20123;-65
2022/04/25 00:37:28;;;;;;;14.80;5.82;;;10.50;99.90;;;;;;5074628;28;20086;-66
2022/04/25 00:39:54;;;;;;;10.43;6.85;;;10.50;99.90;;;;;;5074683;28;20381;-66
2022/04/25 00:42:20;;;;;;;8.95;7.18;;;10.50;99.90;;;;;;5074526;28;20121;-65
2022/04/25 00:44:46;;;;;;;15.25;8.63;;;10.50;99.90;;;;;;5074471;28;20036;-66
2022/04/25 00:47:12;;;;;;;13.43;8.57;;;10.50;99.90;;;;;;5074508;28;20033;-65
2022/04/25 00:49:38;;;;;;;14.52;9.35;;;10.40;99.90;;;;;;5074271;28;20040;-66
2022/04/25 00:52:04;;;;;;;12.30;8.43;;;;;;;;;;5074268;28;20097;-66
2022/04/25 00:54:32;;;;;;;11.05;8.70;;;;;;;;;;5073630;28;20059;-66
2022/04/25 00:56:58;;;;;;;16.50;10.75;;;;;;;;;;5074478;28;20036;-66
2022/04/25 00:59:24;;;;;;;17.35;10.13;;;10.50;99.90;;;;;;5074339;28;20041;-65
2022/04/25 01:01:52;;;;;;;14.38;10.45;;;10.50;99.90;;;;;;5074018;28;20044;-65
2022/04/25 01:04:19;;;;;;;15.77;9.75;;;10.50;99.90;;;;;;5073639;28;20124;-66
2022/04/25 01:06:44;;;;;;;16.15;10.23;;;10.40;99.90;;;;;;5074076;28;20085;-66
2022/04/25 01:09:10;;;;;;;18.45;11.50;;;10.50;99.90;;;;;;5073913;28;20119;-66
2022/04/25 01:11:36;;;;;;;14.68;11.25;;;10.40;99.90;;;;;;5073946;28;20070;-65
2022/04/25 01:14:16;;;;;;;16.60;11.88;;;10.40;99.90;;;;;;5073826;28;20074;-65
2022/04/25 01:16:43;;;;;;;22.27;11.70;;;10.50;99.90;;;;;;5073805;28;20131;-65
2022/04/25 01:19:09;;;;;;;18.85;12.32;;;10.50;99.90;;;;;;5073813;28;20508;-65
2022/04/25 01:21:41;;;;;;;23.58;12.50;;;10.50;99.90;;;;;;5073774;28;20044;-65
2022/04/25 01:29:38;;;;;;;15.23;11.43;;;10.50;99.90;;;;;;5073745;28;20096;-65
2022/04/25 01:32:05;;;;;;;21.08;12.48;;;10.50;99.90;;;;;;5073583;28;20037;-66
2022/04/25 01:34:33;;;;;;;17.15;12.32;;;10.50;99.90;;;;;;5073570;28;20044;-65
2022/04/25 01:36:59;;;;;;;17.45;12.98;;;10.40;99.90;;;;;;5073509;28;20048;-65
2022/04/25 01:39:25;;;;;;;19.77;13.02;;;10.40;99.90;;;;;;5073209;28;20036;-65
2022/04/25 01:41:51;;;;;;;16.77;12.57;;;10.50;99.90;;;;;;5072986;28;20044;-66
2022/04/25 01:44:17;;;;;;;17.13;11.55;;;10.40;99.90;;;;;;5073244;28;20060;-65
2022/04/25 01:46:43;;;;;;;18.20;11.52;;;10.50;99.90;;;;;;5073155;28;20091;-65
2022/04/25 01:49:08;;;;;;;15.75;11.70;;;10.50;99.90;;;;;;5073168;28;20110;-66
2022/04/25 01:51:35;;;;;;;15.55;11.32;;;10.50;99.90;;;;;;5073060;28;20447;-65
2022/04/25 01:54:00;;;;;;;16.23;11.15;;;10.50;99.90;;;;;;5073072;28;20055;-65
2022/04/25 01:56:26;;;;;;;19.08;12.25;;;10.50;99.90;;;;;;5073368;28;20048;-65
2022/04/25 01:58:52;;;;;;;13.85;11.27;;;10.50;99.90;;;;;;5073119;28;20052;-65
2022/04/25 02:01:18;;;;;;;16.67;12.13;;;10.50;99.90;;;;;;5072753;28;20128;-65
2022/04/25 02:03:45;;;;;;;13.05;11.10;;;10.50;99.90;;;;;;5073142;28;20044;-65
2022/04/25 02:06:10;;;;;;;17.80;11.60;;;10.50;99.90;;;;;;5072781;28;20082;-66
2022/04/25 02:08:37;;;;;;;14.57;9.98;;;10.40;99.90;;;;;;5072882;28;20048;-65
2022/04/25 02:11:22;;;;;;;17.80;10.60;;;10.40;99.90;;;;;;5072924;28;20032;-66
2022/04/25 02:13:57;;;;;;;14.93;10.05;;;10.30;99.90;;;;;;5072940;28;20040;-65
2022/04/25 02:16:24;;;;;;;15.05;9.70;;;;;;;;;;5073054;28;20123;-66
2022/04/25 02:18:51;;;;;;;15.00;10.68;;;10.20;99.90;;;;;;5072978;28;20048;-66
2022/04/25 02:21:17;;;;;;;13.57;10.50;;;10.30;99.90;;;;;;5072777;28;20125;-65
2022/04/25 02:23:43;;;;;;;15.55;9.65;;;10.30;99.90;;;;;;5073109;28;20047;-65
2022/04/25 02:26:09;;;;;;;16.60;10.00;;;10.30;99.90;;;;;;5072902;28;20427;-65
2022/04/25 02:28:37;;;;;;;14.57;10.27;;;10.20;99.90;;;;;;5072879;28;20152;-66
2022/04/25 02:31:04;;;;;;;17.10;11.00;;;10.20;99.90;;;;;;5072947;28;20528;-66
2022/04/25 02:33:31;;;;;;;17.33;10.85;;;10.20;99.90;;;;;;5072865;28;20396;-65
2022/04/25 02:35:58;;;;;;;16.95;11.88;;;10.30;99.90;;;;;;5072798;28;20037;-66
2022/04/25 02:38:24;;;;;;;19.77;12.82;;;10.20;99.90;;;;;;5072841;28;20121;-65
2022/04/25 02:41:04;;;;;;;16.58;11.65;;;10.10;99.90;;;;;;5072738;28;20086;-65
2022/04/25 02:43:34;;;;;;;18.40;12.75;;;10.20;99.90;;;;;;5072539;28;20056;-65
2022/04/25 02:46:05;;;;;;;19.02;13.15;;;10.20;99.90;;;;;;5072417;28;20062;-65
2022/04/25 02:48:31;;;;;;;;;;;10.20;99.90;;;;;;5072835;28;20411;-65
2022/04/25 02:50:57;;;;;;;23.65;13.43;;;10.20;99.90;;;;;;5072760;28;19950;-64
2022/04/25 02:53:24;;;;;;;22.40;15.23;;;10.20;99.90;;;;;;5072950;28;20079;-65
2022/04/25 02:55:52;;;;;;;25.35;14.77;;;10.10;99.90;;;;;;5072625;28;20045;-65
2022/04/25 02:58:19;;;;;;;24.88;15.20;;;10.10;99.90;;;;;;5072596;28;20458;-65
2022/04/25 03:00:46;;;;;;;22.88;14.13;;;10.10;99.90;;;;;;5072907;28;20036;-65
2022/04/25 03:03:15;;;;;;;21.90;14.88;;;10.10;99.90;;;;;;5072436;28;20048;-65
2022/04/25 03:05:45;;;;;;;27.80;14.73;;;10.10;99.90;;;;;;5072608;28;20044;-65
2022/04/25 03:08:12;;;;;;;20.88;14.00;;;10.10;99.90;;;;;;5072603;28;20416;-65
2022/04/25 03:10:38;;;;;;;24.05;15.43;;;10.10;99.90;;;;;;5072282;28;20044;-65
2022/04/25 03:13:07;;;;;;;21.90;13.98;;;10.10;99.90;;;;;;5072336;28;20044;-65
2022/04/25 03:15:34;;;;;;;21.02;13.02;;;10.00;99.90;;;;;;5072416;28;20028;-65
2022/04/25 03:18:01;;;;;;;20.92;14.45;;;10.10;99.90;;;;;;5072306;28;20075;-65
2022/04/25 03:20:28;;;;;;;24.15;15.05;;;10.10;99.90;;;;;;5072346;28;20082;-65
2022/04/25 03:22:55;;;;;;;26.08;14.75;;;10.10;99.90;;;;;;5072281;28;20045;-65
2022/04/25 03:25:21;;;;;;;24.02;15.75;;;10.10;99.90;;;;;;5072588;28;20520;-65
2022/04/25 03:27:47;;;;;;;20.88;15.02;;;10.10;99.90;;;;;;5075941;28;20071;-65
2022/04/25 03:30:12;;;;;;;24.30;15.40;;;10.10;99.90;;;;;;5075996;28;20068;-65
2022/04/25 03:32:46;;;;;;;25.58;15.20;;;10.10;99.90;;;;;;5075933;28;20051;-65
2022/04/25 03:35:13;;;;;;;22.90;14.88;;;10.00;99.90;;;;;;5075791;28;20032;-65
2022/04/25 03:37:39;;;;;;;22.23;14.15;;;10.00;99.90;;;;;;5075521;28;20039;-64
2022/04/25 03:40:05;;;;;;;24.35;14.95;;;10.00;99.90;;;;;;5076021;28;20048;-65
2022/04/25 03:42:32;;;;;;;22.45;14.00;;;10.00;99.90;;;;;;5075434;28;20496;-65
2022/04/25 03:45:00;;;;;;;19.90;13.13;;;;;;;;;;5075572;28;20539;-65
2022/04/25 03:47:28;;;;;;;20.77;13.38;;;10.00;99.90;;;;;;5075966;28;20460;-65
2022/04/25 03:49:56;;;;;;;22.10;13.30;;;;;;;;;;5075628;28;20040;-65
2022/04/25 03:52:23;;;;;;;25.00;14.50;;;9.90;99.90;;;;;;5057607;28;20061;-65
2022/04/25 03:57:33;;;;;;;19.23;13.93;;;10.00;99.90;;;;;;5075299;28;20040;-66
2022/04/25 03:59:59;;;;;;;19.50;13.60;;;10.00;99.90;;;;;;5071563;28;20423;-65
2022/04/25 04:02:24;;;;;;;24.63;14.80;;;10.00;99.90;;;;;;5073040;28;20090;-65
2022/04/25 04:04:50;;;;;;;22.00;14.68;;;9.90;99.90;;;;;;5075278;28;20036;-66
2022/04/25 04:07:16;;;;;;;23.50;13.63;;;9.90;99.90;;;;;;5075149;28;20123;-65
2022/04/25 04:09:44;;;;;;;22.45;13.32;;;9.90;99.90;;;;;;5075099;28;20032;-65
2022/04/25 04:12:11;;;;;;;21.35;13.70;;;10.00;99.90;;;;;;5075150;28;20060;-65
2022/04/25 04:14:37;;;;;;;20.90;13.35;;;10.00;99.90;;;;;;5075239;28;20048;-66
2022/04/25 04:17:06;;;;;;;20.95;14.13;;;10.00;99.90;;;;;;5075236;28;20044;-65
2022/04/25 04:19:32;;;;;;;23.85;14.70;;;10.00;99.90;;;;;;5075112;28;20048;-65
2022/04/25 04:21:58;;;;;;;24.42;13.52;;;10.10;99.90;;;;;;5075203;28;20048;-65
2022/04/25 04:24:23;;;;;;;21.00;14.85;;;10.10;99.90;;;;;;5074816;28;20040;-65
2022/04/25 04:26:49;;;;;;;21.50;13.88;;;10.10;99.90;;;;;;5074801;28;20040;-65
2022/04/25 04:29:15;;;;;;;20.42;13.48;;;10.10;99.90;;;;;;5074777;28;20024;-65
2022/04/25 04:31:40;;;;;;;20.52;13.32;;;10.00;99.90;;;;;;5069299;28;20039;-65
2022/04/25 04:34:06;;;;;;;22.73;14.18;;;10.10;99.90;;;;;;5054718;28;20479;-65
2022/04/25 04:36:32;;;;;;;22.05;14.20;;;10.10;99.90;;;;;;5054294;28;20045;-65
2022/04/25 04:38:58;;;;;;;24.60;15.00;;;10.00;99.90;;;;;;5053882;28;20032;-64
2022/04/25 04:41:23;;;;;;;23.05;13.55;;;10.00;99.90;;;;;;5054678;28;20119;-65
2022/04/25 04:43:49;;;;;;;22.98;13.68;;;10.00;99.90;;;;;;5054701;28;20127;-65
2022/04/25 04:46:15;;;;;;;19.17;12.95;;;10.00;99.90;;;;;;5054462;28;20051;-65
2022/04/25 04:48:41;;;;;;;21.77;13.68;;;10.00;99.90;;;;;;5054376;28;20040;-64
2022/04/25 04:51:08;;;;;;;17.70;13.43;;;10.00;99.90;;;;;;5054433;28;20036;-64
2022/04/25 04:53:34;;;;;;;26.65;13.93;;;10.00;99.90;;;;;;5054382;28;20488;-65
2022/04/25 04:56:00;;;;;;;23.65;14.90;;;10.00;99.90;;;;;;5054248;28;20044;-64
2022/04/25 04:58:27;;;;;;;21.90;13.30;;;10.00;99.90;;;;;;5071195;28;20403;-65
2022/04/25 05:00:53;;;;;;;20.90;13.25;;;10.10;99.90;;;;;;5074184;28;20399;-65
2022/04/25 05:03:20;;;;;;;20.95;14.00;;;10.00;99.90;;;;;;5074002;28;20048;-65
2022/04/25 05:05:45;;;;;;;20.38;13.23;;;10.00;99.90;;;;;;5074013;28;20480;-65
2022/04/25 05:08:12;;;;;;;23.73;14.05;;;10.10;99.90;;;;;;5074019;28;20048;-65
2022/04/25 05:10:37;;;;;;;22.38;13.50;;;10.00;99.90;;;;;;5074059;28;20045;-65
2022/04/25 05:13:03;;;;;;;21.85;12.20;;;10.00;99.90;;;;;;5074017;28;20040;-65
2022/04/25 05:15:30;;;;;;;21.70;13.07;;;9.90;99.90;;;;;;5073902;28;20032;-65
2022/04/25 05:17:56;;;;;;;21.55;13.35;;;9.90;99.90;;;;;;5073734;28;20044;-65
2022/04/25 05:20:25;;;;;;;20.75;13.88;;;9.90;99.90;;;;;;5073611;28;20043;-64
2022/04/25 05:22:51;;;;;;;23.30;13.05;;;9.90;99.90;;;;;;5073551;28;20500;-65
2022/04/25 05:25:22;;;;;;;17.15;12.40;;;9.90;99.90;;;;;;5073525;28;20115;-65
2022/04/25 05:27:50;;;;;;;;;;;10.00;99.90;;;;;;5074093;28;20052;-65
2022/04/25 05:30:16;;;;;;;20.92;13.00;;;10.00;99.90;;;;;;5073706;28;19908;-65
2022/04/25 05:32:49;;;;;;;19.45;12.32;;;10.10;99.90;;;;;;5072742;28;20041;-65
2022/04/25 05:35:17;;;;;;;16.35;12.05;;;10.10;99.90;;;;;;5073674;28;20086;-64
2022/04/25 05:37:44;;;;;;;18.42;13.25;;;10.10;99.90;;;;;;5072117;28;20538;-65
2022/04/25 05:40:16;;;;;;;20.48;13.25;;;10.20;99.90;;;;;;5073524;28;20029;-65
2022/04/25 05:42:43;;;;;;;16.00;11.73;;;10.20;99.90;;;;;;5073290;28;20505;-65
2022/04/25 05:45:10;;;;;;;18.77;12.75;;;10.20;99.90;;;;;;5073399;28;20062;-66
2022/04/25 05:47:37;;;;;;;17.65;12.32;;;10.30;99.90;;;;;;5073389;28;20046;-66
2022/04/25 05:52:49;;;;;;;20.98;13.90;;;10.20;99.90;;;;;;5073269;28;20035;-66
2022/04/25 05:55:15;;;;;;;23.60;13.75;;;10.30;99.90;;;;;;5073364;28;20036;-66
2022/04/25 05:57:41;;;;;;;19.88;12.43;;;10.30;99.90;;;;;;5073313;28;20043;-66
2022/04/25 06:00:09;;;;;;;19.40;12.73;;;10.30;99.90;;;;;;5073122;28;20115;-66
2022/04/25 06:02:42;;;;;;;17.10;11.90;;;10.10;99.90;;;;;;5073271;28;20140;-65
2022/04/25 06:05:12;;;;;;;21.40;12.30;;;10.10;99.90;;;;;;5073205;28;20048;-66
2022/04/25 06:07:41;;;;;;;19.90;12.95;;;10.20;99.90;;;;;;5073092;28;20048;-66
2022/04/25 06:10:08;;;;;;;18.27;11.77;;;10.20;99.90;;;;;;5073080;28;20033;-65
2022/04/25 06:12:42;;;;;;;17.52;11.15;;;10.20;99.90;;;;;;5073140;28;20036;-66
2022/04/25 06:15:09;;;;;;;20.30;11.10;;;10.30;99.90;;;;;;5073034;28;20037;-65
2022/04/25 06:17:36;;;;;;;20.02;11.63;;;10.20;99.90;;;;;;5073170;28;20047;-65
2022/04/25 06:20:06;;;;;;;22.90;10.93;;;10.30;99.90;;;;;;5072966;28;20036;-65
2022/04/25 06:22:33;;;;;;;14.90;10.07;;;10.30;99.90;;;;;;5073208;28;20078;-66
2022/04/25 06:24:58;;;;;;;16.98;10.38;;;10.20;99.90;;;;;;5072880;28;20040;-65
2022/04/25 06:27:24;;;;;;;17.52;9.80;;;10.20;99.90;;;;;;5072916;28;20051;-66
2022/04/25 06:29:52;;;;;;;13.70;9.80;;;10.20;99.90;;;;;;5073066;28;20442;-66
2022/04/25 06:32:19;;;;;;;15.48;10.07;;;10.20;99.90;;;;;;5072713;28;20511;-65
2022/04/25 06:34:46;;;;;;;16.42;9.52;;;10.30;99.90;;;;;;5072817;28;20032;-66
2022/04/25 06:37:11;;;;;;;17.17;10.32;;;10.30;99.90;;;;;;5072747;28;20036;-65
2022/04/25 06:39:37;;;;;;;19.00;10.82;;;10.20;99.90;;;;;;5072720;28;20051;-65
2022/04/25 06:42:05;;;;;;;16.10;10.10;;;10.20;99.90;;;;;;5072824;28;20052;-66
2022/04/25 06:44:31;;;;;;;17.77;10.02;;;10.30;99.90;;;;;;5072787;28;20040;-66
2022/04/25 06:46:57;;;;;;;19.40;9.93;;;10.20;99.90;;;;;;5073006;28;20381;-64
2022/04/25 06:49:25;;;;;;;12.93;9.07;;;10.30;99.90;;;;;;5073029;28;20039;-66
2022/04/25 06:51:56;;;;;;;17.40;10.30;;;10.30;99.90;;;;;;5072569;28;20093;-66
2022/04/25 06:54:26;;;;;;;17.45;9.70;;;10.30;99.90;;;;;;5072612;28;20042;-66
2022/04/25 06:56:55;;;;;;;16.20;9.43;;;10.40;99.90;;;;;;5072789;28;20048;-65
2022/04/25 06:59:22;;;;;;;15.85;10.05;;;10.40;99.90;;;;;;5072780;28;20504;-66
2022/04/25 07:01:49;;;;;;;12.93;8.90;;;10.30;99.90;;;;;;5075054;28;20158;-65
2022/04/25 07:04:16;;;;;;;13.82;8.57;;;10.30;99.90;;;;;;5076484;28;20040;-66
2022/04/25 07:06:43;;;;;;;18.55;8.75;;;10.30;99.90;;;;;;5076499;28;20124;-66
2022/04/25 07:09:13;;;;;;;12.07;7.88;;;10.30;99.90;;;;;;5076266;28;20127;-65
2022/04/25 07:11:43;;;;;;;16.42;9.70;;;10.30;99.90;;;;;;5076501;28;20128;-66
2022/04/25 07:14:19;;;;;;;13.57;8.60;;;10.40;99.90;;;;;;5076380;28;20446;-66
2022/04/25 07:16:48;;;;;;;13.35;9.13;;;10.40;99.90;;;;;;5076322;28;20060;-67
2022/04/25 07:19:17;;;;;;;15.93;8.60;;;10.50;99.90;;;;;;5076271;28;20319;-67
2022/04/25 07:29:57;;;;;;;15.55;8.77;;;10.70;99.90;;;;;;5075926;28;20396;-66
2022/04/25 07:32:23;;;;;;;14.05;8.65;;;10.60;99.90;;;;;;5076075;28;20032;-66
2022/04/25 07:34:49;;;;;;;13.10;8.55;;;;;;;;;;5075651;28;20048;-66
2022/04/25 07:37:17;;;;;;;14.07;8.32;;;10.30;99.90;;;;;;5071101;28;20040;-66
2022/04/25 07:39:43;;;;;;;15.85;9.73;;;10.70;99.90;;;;;;5055687;28;20049;-65
2022/04/25 07:42:10;;;;;;;12.48;7.78;;;10.70;99.90;;;;;;5055612;28;20055;-66
2022/04/25 07:44:36;;;;;;;15.57;8.18;;;10.60;99.90;;;;;;5055868;28;20048;-65
2022/04/25 07:47:02;;;;;;;14.73;7.70;;;10.60;99.90;;;;;;5055823;28;20493;-66
2022/04/25 07:49:28;;;;;;;18.10;8.10;;;10.60;99.90;;;;;;5055849;28;20041;-66
2022/04/25 07:51:55;;;;;;;16.55;7.93;;;10.70;99.90;;;;;;5055483;28;20048;-66
2022/04/25 07:54:22;;;;;;;11.30;7.35;;;10.70;99.90;;;;;;5055514;28;20029;-66
2022/04/25 07:56:48;;;;;;;12.52;7.70;;;10.60;99.90;;;;;;5055248;28;20131;-66
2022/04/25 07:59:15;;;;;;;18.77;8.65;;;10.50;99.90;;;;;;5055398;28;20045;-65
2022/04/25 08:01:41;;;;;;;12.23;7.68;;;10.50;99.90;;;;;;5053750;28;20395;-66
2022/04/25 08:04:08;;;;;;;11.05;7.25;;;10.50;99.90;;;;;;5062470;28;20493;-66
2022/04/25 08:06:33;;;;;;;14.90;8.80;;;10.50;99.90;;;;;;5073252;28;20040;-65
2022/04/25 08:09:02;;;;;;;14.52;8.77;;;10.50;99.90;;;;;;5074981;28;20036;-66
2022/04/25 08:11:28;;;;;;;13.82;8.77;;;10.40;99.90;;;;;;5075224;28;20032;-66
2022/04/25 08:19:22;;;;;;;10.63;7.40;;;10.60;99.90;;;;;;5075203;28;20134;-66
2022/04/25 08:21:48;;;;;;;14.68;7.43;;;;;;;;;;5074776;28;20474;-66
2022/04/25 08:24:14;;;;;;;13.18;8.07;;;10.60;99.90;;;;;;5075116;28;20072;-66
2022/04/25 08:26:40;;;;;;;12.60;7.38;;;10.70;99.90;;;;;;5074864;28;20035;-66
2022/04/25 08:29:06;;;;;;;10.82;7.03;;;10.70;99.90;;;;;;5074794;28;20055;-66
2022/04/25 08:31:33;;;;;;;13.15;7.72;;;10.80;99.90;;;;;;5075211;28;20425;-66
2022/04/25 08:34:01;;;;;;;14.20;7.97;;;10.80;99.90;;;;;;5074861;28;20078;-66
2022/04/25 08:36:27;;;;;;;12.27;6.88;;;10.90;99.90;;;;;;5073889;28;20049;-65
2022/04/25 08:38:53;;;;;;;9.82;7.03;;;11.00;99.90;;;;;;5074511;28;20048;-65
2022/04/25 08:41:48;;;;;;;13.07;7.75;;;10.90;99.90;;;;;;5074408;28;20032;-65
2022/04/25 08:44:18;;;;;;;13.90;7.43;;;11.00;99.90;;;;;;5073599;28;20044;-66
2022/04/25 08:46:51;;;;;;;;;;;11.20;99.90;;;;;;5074940;28;20060;-66
2022/04/25 08:49:19;;;;;;;14.25;8.00;;;11.20;99.90;;;;;;5074557;28;20364;-64
2022/04/25 08:51:46;;;;;;;9.63;6.78;;;11.20;99.90;;;;;;5074422;28;20029;-64
2022/04/25 08:54:13;;;;;;;11.57;6.97;;;11.10;99.90;;;;;;5074734;28;20066;-66
2022/04/25 08:56:40;;;;;;;9.88;6.28;;;11.20;99.90;;;;;;5074393;28;20067;-65
2022/04/25 08:59:07;;;;;;;10.35;6.60;;;11.20;99.90;;;;;;5074107;28;20044;-66
2022/04/25 09:01:34;;;;;;;12.10;7.28;;;11.10;99.90;;;;;;5073449;28;20438;-63
2022/04/25 09:04:01;;;;;;;11.13;7.53;;;11.20;99.90;;;;;;5074012;28;20045;-66
2022/04/25 09:06:28;;;;;;;15.75;8.18;;;11.10;99.90;;;;;;5074025;28;20454;-65
2022/04/25 09:08:53;;;;;;;13.38;8.38;;;11.20;99.90;;;;;;5073974;28;20033;-65
2022/04/25 09:14:05;;;;;;;16.77;8.65;;;11.40;99.90;;;;;;5073993;28;20078;-65
2022/04/25 09:16:31;;;;;;;16.30;8.35;;;11.50;99.90;;;;;;5074145;28;20044;-66
2022/04/25 09:18:58;;;;;;;13.68;8.10;;;;;;;;;;5074000;28;20055;-65
2022/04/25 09:21:24;;;;;;;14.70;7.85;;;11.60;99.90;;;;;;5073896;28;20061;-65
2022/04/25 09:23:53;;;;;;;13.25;8.10;;;11.50;99.90;;;;;;5073294;28;20037;-65
2022/04/25 09:26:27;;;;;;;15.07;8.20;;;11.40;99.90;;;;;;5073921;28;20036;-65
2022/04/25 09:28:56;;;;;;;17.23;9.35;;;11.60;99.90;;;;;;5073765;28;20072;-63
2022/04/25 09:31:25;;;;;;;14.05;7.90;;;11.60;99.90;;;;;;5073818;28;20074;-65
2022/04/25 09:33:51;;;;;;;15.20;8.55;;;11.60;99.90;;;;;;5073627;28;20046;-65
2022/04/25 09:36:17;;;;;;;13.05;8.77;;;11.70;99.90;;;;;;5073095;28;20032;-65
2022/04/25 09:38:45;;;;;;;14.13;8.77;;;11.70;99.90;;;;;;5073468;28;20412;-65
2022/04/25 09:41:15;;;;;;;12.55;8.02;;;11.90;99.90;;;;;;5073682;28;20094;-65
2022/04/25 09:43:47;;;;;;;13.75;8.55;;;11.90;99.90;;;;;;5073492;28;20044;-65
2022/04/25 09:46:15;;;;;;;18.95;9.52;;;11.80;99.90;;;;;;5073316;28;20036;-65
2022/04/25 09:48:58;;;;;;;12.50;8.52;;;11.90;99.90;;;;;;5073472;28;20131;-65
2022/04/25 09:51:24;;;;;;;16.48;10.90;;;12.10;99.90;;;;;;5072158;28;20036;-65
2022/04/25 09:53:54;;;;;;;13.23;8.38;;;12.10;99.90;;;;;;5068634;28;20036;-65
2022/04/25 09:56:27;;;;;;;11.60;8.32;;;11.90;99.90;;;;;;5073174;28;20127;-65
2022/04/25 09:59:07;;;;;;;17.88;13.27;;;12.00;99.90;;;;;;5071225;28;20102;-65
2022/04/25 10:01:36;;;;;;;12.67;9.17;;;12.00;99.90;;;;;;5053083;28;20128;-64
2022/04/25 10:04:03;;;;;;;16.15;9.90;;;12.20;99.90;;;;;;5053517;28;20059;-64
2022/04/25 10:06:34;;;;;;;20.20;11.00;;;12.10;99.90;;;;;;5053230;28;20091;-65
2022/04/25 10:09:02;;;;;;;14.20;8.80;;;12.10;99.90;;;;;;5053398;28;20439;-65
2022/04/25 10:11:33;;;;;;;13.27;8.18;;;12.10;99.90;;;;;;5060728;28;20640;-65
2022/04/25 10:14:00;;;;;;;11.73;8.45;;;12.00;99.90;;;;;;5060972;28;20049;-65
2022/04/25 10:16:28;;;;;;;12.63;8.63;;;12.10;99.90;;;;;;5061504;28;20052;-64
2022/04/25 10:18:55;;;;;;;20.23;12.13;;;12.20;99.90;;;;;;5072250;28;20033;-66
2022/04/25 10:21:22;;;;;;;16.63;11.07;;;12.30;99.90;;;;;;5068719;28;20036;-66
2022/04/25 10:23:49;;;;;;;19.92;10.15;;;12.40;99.90;;;;;;5060795;28;20060;-64
2022/04/25 10:26:15;;;;;;;12.02;8.02;;;12.50;99.90;;;;;;5059486;28;20496;-66
2022/04/25 10:28:46;;;;;;;11.85;7.68;;;12.50;99.90;;;;;;5068145;28;20043;-65
2022/04/25 10:31:23;;;;;;;13.10;7.50;;;12.60;99.90;;;;;;5061985;28;20036;-67
2022/04/25 10:33:58;;;;;;;10.77;6.78;;;12.60;99.90;;;;;;5062293;28;20445;-66
2022/04/25 10:36:39;;;;;;;14.77;8.70;;;12.40;99.90;;;;;;5069181;28;20415;-65
2022/04/25 10:39:14;;;;;;;12.95;8.00;;;12.70;99.90;;;;;;5074510;28;20089;-65
2022/04/25 10:44:47;;;;;;;42.97;21.40;;;12.70;99.90;;;;;;5068721;28;20082;-66
2022/04/25 10:47:16;;;;;;;15.55;9.18;;;12.70;99.90;;;;;;5056270;28;20037;-66
2022/04/25 10:49:43;;;;;;;17.10;12.65;;;12.70;99.90;;;;;;5054831;28;20166;-65
2022/04/25 10:52:33;;;;;;;30.10;18.48;;;12.80;99.90;;;;;;5054994;28;20156;-66
2022/04/25 10:55:21;;;;;;;10.30;8.05;;;13.10;99.90;;;;;;5056289;28;20049;-66
2022/04/25 10:58:02;;;;;;;13.00;8.45;;;13.10;99.90;;;;;;5054593;28;20035;-66
2022/04/25 11:00:39;;;;;;;12.95;7.30;;;13.20;99.90;;;;;;5054779;28;20568;-66
2022/04/25 11:03:29;;;;;;;11.90;8.60;;;12.90;99.90;;;;;;5056090;28;20056;-66
2022/04/25 11:06:00;;;;;;;14.60;10.23;;;13.00;99.90;;;;;;5064325;28;20076;-66
2022/04/25 11:08:38;;;;;;;20.90;16.20;;;13.20;99.90;;;;;;5066936;28;20041;-67
2022/04/25 11:11:13;;;;;;;13.18;8.90;;;13.40;99.90;;;;;;5071221;28;20044;-65
2022/04/25 11:13:51;;;;;;;9.85;7.10;;;13.50;99.90;;;;;;5074200;28;20041;-67
2022/04/25 11:16:23;;;;;;;9.48;7.82;;;13.40;99.90;;;;;;5066282;28;20551;-66
2022/04/25 11:19:11;;;;;;;14.05;10.13;;;13.20;99.90;;;;;;5071018;28;20082;-68
2022/04/25 11:21:57;;;;;;;10.85;8.80;;;13.60;99.90;;;;;;5070821;28;20504;-65
2022/04/25 11:24:38;;;;;;;13.40;7.22;;;13.60;99.90;;;;;;5064866;28;20049;-67
2022/04/25 11:27:11;;;;;;;12.50;9.63;;;13.40;99.90;;;;;;5067714;28;20377;-66
2022/04/25 11:29:44;;;;;;;13.32;8.18;;;13.60;99.90;;;;;;5068541;28;20048;-64
2022/04/25 11:32:32;;;;;;;14.20;9.55;;;13.70;99.90;;;;;;5065042;28;20045;-68
2022/04/25 11:35:01;;;;;;;10.13;7.50;;;14.00;99.90;;;;;;5063801;28;20052;-68
2022/04/25 11:37:31;;;;;;;11.75;7.95;;;13.60;99.90;;;;;;5065698;28;20040;-65
2022/04/25 11:39:59;;;;;;;7.35;5.85;;;13.80;99.90;;;;;;5069980;28;20416;-68
2022/04/25 11:42:30;;;;;;;8.55;6.30;;;13.70;99.90;;;;;;5062997;28;20044;-69
2022/04/25 11:44:56;;;;;;;9.85;6.95;;;13.90;99.90;;;;;;5063682;28;20060;-68
2022/04/25 11:47:23;;;;;;;9.93;6.75;;;14.30;99.90;;;;;;5061969;28;20075;-68
2022/04/25 11:50:13;;;;;;;9.20;6.70;;;14.30;99.90;;;;;;5062902;28;20036;-68
2022/04/25 11:52:54;;;;;;;8.50;6.32;;;14.70;99.90;;;;;;5062928;28;20393;-68
2022/04/25 11:55:34;;;;;;;10.98;6.90;;;14.50;99.90;;;;;;5062366;28;20062;-69
2022/04/25 11:58:01;;;;;;;10.55;6.63;;;14.60;99.90;;;;;;5057323;28;20033;-66
2022/04/25 12:00:26;;;;;;;6.75;4.65;;;14.30;99.90;;;;;;5059597;28;20096;-68
2022/04/25 12:02:53;;;;;;;9.50;5.30;;;14.10;99.90;;;;;;5064964;28;20057;-67
2022/04/25 12:05:31;;;;;;;7.97;4.95;;;14.30;99.90;;;;;;5059498;28;20055;-69
2022/04/25 12:16:14;;;;;;;5.75;4.65;;;14.30;99.90;;;;;;5072236;28;20116;-69
2022/04/25 12:18:52;;;;;;;7.25;4.53;;;14.00;99.90;;;;;;5072337;28;20408;-66
2022/04/25 12:21:20;;;;;;;7.72;4.85;;;14.20;99.90;;;;;;5072714;28;20424;-68
2022/04/25 12:23:51;;;;;;;6.40;4.60;;;14.30;99.90;;;;;;5072867;28;20048;-66
2022/04/25 12:26:23;;;;;;;9.18;5.07;;;14.30;99.90;;;;;;5074306;28;20046;-69
2022/04/25 12:29:00;;;;;;;8.27;4.90;;;14.20;99.90;;;;;;5072531;28;20542;-67
2022/04/25 12:31:27;;;;;;;8.85;5.25;;;14.20;99.90;;;;;;5073010;28;20698;-68
2022/04/25 12:33:54;;;;;;;6.40;4.35;;;14.30;99.90;;;;;;5073404;28;20032;-69
2022/04/25 12:36:27;;;;;;;6.95;4.30;;;14.10;99.90;;;;;;5073204;28;20049;-68
2022/04/25 12:39:00;;;;;;;7.93;4.88;;;14.20;99.90;;;;;;5073099;28;20040;-66
2022/04/25 12:41:35;;;;;;;5.18;4.10;;;14.10;99.90;;;;;;5073342;28;20115;-69
2022/04/25 12:44:13;;;;;;;6.50;4.60;;;14.10;99.90;;;;;;5072627;28;20580;-68
2022/04/25 12:46:44;;;;;;;6.25;4.80;;;14.10;99.90;;;;;;5072862;28;20049;-67
2022/04/25 12:49:12;;;;;;;7.15;4.68;;;14.20;99.90;;;;;;5070039;28;20120;-68
2022/04/25 12:51:38;;;;;;;6.80;5.07;;;14.20;99.90;;;;;;5053286;28;20036;-67
2022/04/25 12:54:25;;;;;;;9.52;4.00;;;14.30;99.90;;;;;;5054724;28;20037;-66
2022/04/25 12:57:05;;;;;;;7.40;4.97;;;14.50;99.90;;;;;;5054229;28;20037;-69
2022/04/25 12:59:33;;;;;;;7.25;4.65;;;14.50;99.90;;;;;;5053007;28;20481;-68
2022/04/25 13:02:12;;;;;;;10.25;5.80;;;14.50;99.90;;;;;;5063538;28;20048;-68
2022/04/25 13:04:56;;;;;;;8.77;5.13;;;15.00;99.90;;;;;;5053374;28;20076;-65
2022/04/25 13:07:23;;;;;;;9.10;5.82;;;15.00;99.90;;;;;;5072485;28;20048;-66
2022/04/25 13:09:53;;;;;;;7.40;4.97;;;14.80;99.90;;;;;;5072668;28;20121;-66
2022/04/25 13:12:19;;;;;;;14.02;8.15;;;14.70;99.90;;;;;;5070889;28;20447;-67
2022/04/25 13:14:45;;;;;;;10.63;7.43;;;14.80;99.90;;;;;;5070731;28;20396;-65
2022/04/25 13:17:12;;;;;;;6.45;4.60;;;14.80;99.90;;;;;;5070274;28;20041;-65
2022/04/25 13:19:38;;;;;;;9.27;5.10;;;14.90;99.90;;;;;;5071832;28;20044;-67
2022/04/25 13:22:04;;;;;;;12.43;7.28;;;15.00;99.90;;;;;;5070871;28;20040;-66
2022/04/25 13:24:31;;;;;;;16.10;10.60;;;15.10;99.90;;;;;;5071975;28;20076;-67